Grand Princess — ZCBU5 — position and weather

sailwx.info

Track history (hours):
 
Tides and Currents Weather Stations Pressure Air Temp Water Temp Dewpoint Dewpoint Depression Visibility Wind Speed Wind Dir Waves Ship Positions

Grand Princess

Operator: Princess Cruises

Last reported at 2018-Apr-18 06:00 UTC. Time now 2018-Apr-20 06:31 UTC.
Position N 25°36' W 148°18'.

Length 289.5 m; beam 36 m; draft 8.5 m.

Type: Passenger vessel. MMSI: 310327000.

Wind from 090 at 19 knots

Barometer 1023.1 mb
Air temperature 20.0 ° C
Visibility: greater than 5.4 NM
Dewpoint 14.9 ° C
Water temperature 23.0 ° C

Date/timePositionNaut miles runAvg speedWind from/ knotsBaromVisibWave heightAir tempDewpointWater temp
2018-Apr-18 06:00N 25°36' W 148°18'   090 / 191023.1 5.4 20.014.923.0
2018-Apr-15 18:00N 35°24' W 127°42'16917.6 300 / 381017.110.8 13.5 8.814.0
2018-Apr-15 08:21N 36°51' W 124°42'815.3
2018-Apr-15 07:51N 36°55' W 124°34'1115.3
2018-Apr-15 07:09N 36°60' W 124°22'215.4
2018-Apr-15 07:00N 37°01' W 124°19'815.3
2018-Apr-15 06:30N 37°05' W 124°11'1815.3
2018-Apr-15 05:22N 37°13' W 123°52'615.7
2018-Apr-15 05:00N 37°16' W 123°45'5291.1
2018-Apr-15 05:00N 37°12' W 123°42'917.6 320 / 261020.0 5.4 13.011.111.0
2018-Apr-15 04:30N 37°19' W 123°37'815.3
2018-Apr-15 04:00N 37°23' W 123°28'815.4
2018-Apr-15 03:30N 37°27' W 123°20'815.6
2018-Apr-15 03:00N 37°31' W 123°11'815.9
2018-Apr-15 02:30N 37°35' W 123°03'816.1
2018-Apr-15 02:00N 37°39' W 122°54'815.8
2018-Apr-15 01:30N 37°43' W 122°45'713.2
2018-Apr-15 01:00N 37°46' W 122°38'815.9
2018-Apr-15 00:30N 37°49' W 122°29'4 7.3
2018-Apr-14 23:59N 37°48' W 122°24'0 0.0
2018-Apr-14 23:29N 37°48' W 122°24'0 0.0
2018-Apr-14 22:59N 37°48' W 122°24'0 0.0
2018-Apr-14 22:28N 37°48' W 122°24'0 0.0
2018-Apr-14 21:58N 37°48' W 122°24'0 0.0
2018-Apr-14 21:28N 37°48' W 122°24'0 0.0
2018-Apr-14 20:58N 37°48' W 122°24'0 0.0
2018-Apr-14 20:30N 37°48' W 122°24'0 0.0
2018-Apr-14 20:00N 37°48' W 122°24'0 0.0
2018-Apr-14 19:30N 37°48' W 122°24'0 0.0
2018-Apr-14 19:00N 37°48' W 122°24'0 0.0
2018-Apr-14 18:30N 37°48' W 122°24'0 0.0
2018-Apr-14 17:59N 37°48' W 122°24'0 0.0
2018-Apr-14 17:29N 37°48' W 122°24'0 0.0
2018-Apr-14 16:59N 37°48' W 122°24'0 0.0
2018-Apr-14 16:29N 37°48' W 122°24'0 0.0
2018-Apr-14 15:59N 37°48' W 122°24'0 0.0
2018-Apr-14 15:28N 37°48' W 122°24'0 0.0
2018-Apr-14 14:58N 37°48' W 122°24'0 0.0
2018-Apr-14 14:25N 37°48' W 122°24'0 0.0
2018-Apr-14 13:58N 37°48' W 122°24'0 0.3
2018-Apr-14 13:30N 37°48' W 122°24'3 6.5
2018-Apr-14 13:00N 37°49' W 122°28'510.9
2018-Apr-14 12:30N 37°47' W 122°34'510.7
2018-Apr-14 12:00N 37°44' W 122°40'611.4
2018-Apr-14 11:30N 37°39' W 122°40'612.4
2018-Apr-14 11:00N 37°33' W 122°40'612.4
2018-Apr-14 10:30N 37°26' W 122°40'612.3
2018-Apr-14 10:00N 37°20' W 122°40'612.9
2018-Apr-14 09:31N 37°14' W 122°39'714.6
2018-Apr-14 09:00N 37°07' W 122°37'814.7
2018-Apr-14 08:28N 36°59' W 122°34'814.5
2018-Apr-14 07:57N 36°52' W 122°30'714.4
2018-Apr-14 07:27N 36°46' W 122°27'4312.4
2018-Apr-14 04:00N 36°06' W 122°06'678.1 330 / 351018.0 5.4 13.011.112.0
2018-Apr-14 03:55N 36°00' W 122°07'2812.5
2018-Apr-14 01:41N 35°35' W 121°53'213.0
2018-Apr-14 01:30N 35°33' W 121°51'612.9
2018-Apr-14 01:01N 35°27' W 121°48'712.9
2018-Apr-14 00:30N 35°21' W 121°44'612.9
2018-Apr-14 00:00N 35°16' W 121°40'5359.3
2018-Apr-14 00:00N 35°12' W 121°36'2 4.1 340 / 271026.010.8 13.0 6.813.0
2018-Apr-13 23:30N 35°10' W 121°37'612.8
2018-Apr-13 23:00N 35°04' W 121°33'612.8
2018-Apr-13 22:31N 34°59' W 121°30'612.8
2018-Apr-13 22:00N 34°53' W 121°26'612.7
2018-Apr-13 21:30N 34°47' W 121°22'612.7
2018-Apr-13 21:01N 34°42' W 121°19'713.4
2018-Apr-13 20:30N 34°36' W 121°15'713.2
2018-Apr-13 19:58N 34°30' W 121°11'813.3
2018-Apr-13 19:20N 34°22' W 121°06'413.0
2018-Apr-13 18:59N 34°18' W 121°04'612.6
2018-Apr-13 18:30N 34°13' W 120°59'612.5
2018-Apr-13 18:00N 34°09' W 120°54'612.4
2018-Apr-13 17:30N 34°04' W 120°49'812.1
2018-Apr-13 16:52N 33°59' W 120°42'613.4
2018-Apr-13 16:26N 33°56' W 120°36'613.2
2018-Apr-13 16:00N 33°54' W 120°30'713.5
2018-Apr-13 15:30N 33°51' W 120°23'713.9
2018-Apr-13 15:00N 33°47' W 120°15'714.0
2018-Apr-13 14:30N 33°45' W 120°07'815.6
2018-Apr-13 14:00N 33°46' W 119°58'815.9
2018-Apr-13 13:30N 33°46' W 119°48'815.6
2018-Apr-13 13:01N 33°47' W 119°39'816.2
2018-Apr-13 12:30N 33°48' W 119°29'816.3
2018-Apr-13 11:59N 33°45' W 119°20'816.5
2018-Apr-13 11:29N 33°42' W 119°11'816.4
2018-Apr-13 11:01N 33°39' W 119°02'815.6
2018-Apr-13 10:31N 33°35' W 118°54'815.7
2018-Apr-13 09:59N 33°28' W 118°47'715.7
2018-Apr-13 09:30N 33°23' W 118°42'715.0
2018-Apr-13 09:00N 33°17' W 118°36'815.1
2018-Apr-13 08:31N 33°12' W 118°30'714.8
2018-Apr-13 08:01N 33°06' W 118°24'715.0
2018-Apr-13 07:31N 33°01' W 118°18'815.1
2018-Apr-13 07:00N 32°55' W 118°12'815.3
2018-Apr-13 06:30N 32°49' W 118°06'714.8
2018-Apr-13 06:00N 32°44' W 117°60'713.6
2018-Apr-13 05:31N 32°39' W 117°54'714.7
2018-Apr-13 05:00N 32°37' W 117°45'3231.4
2018-Apr-13 05:00N 32°36' W 117°42'611.7 300 / 251017.310.8 18.012.720.0
2018-Apr-13 04:30N 32°32' W 117°38'918.0
2018-Apr-13 04:00N 32°23' W 117°34'1018.0
2018-Apr-13 03:27N 32°15' W 117°28'24 1.2
2018-Apr-12 07:01N 32°36' W 117°15'210.3
2018-Apr-12 06:50N 32°38' W 117°14'6 0.5
2018-Apr-11 18:17N 32°43' W 117°10'0 0.0
2018-Apr-11 17:47N 32°43' W 117°10'0 0.0
2018-Apr-11 17:23N 32°43' W 117°10'0 0.0
2018-Apr-11 16:40N 32°43' W 117°10'0 0.0
2018-Apr-11 16:28N 32°43' W 117°10'0 0.0
2018-Apr-11 15:07N 32°43' W 117°10'0 0.0
2018-Apr-11 14:58N 32°43' W 117°10'0 0.1
2018-Apr-11 14:30N 32°43' W 117°10'4 5.5
2018-Apr-11 13:42N 32°39' W 117°14'2 9.7
2018-Apr-11 13:30N 32°38' W 117°14'5 9.4
2018-Apr-11 13:00N 32°39' W 117°20'611.5
2018-Apr-11 12:31N 32°43' W 117°24'611.2
2018-Apr-11 12:00N 32°46' W 117°29'611.2
2018-Apr-11 11:31N 32°50' W 117°34'611.3
2018-Apr-11 11:00N 32°54' W 117°39'611.4
2018-Apr-11 10:30N 32°59' W 117°43'611.5
2018-Apr-11 10:01N 33°03' W 117°48'611.7
2018-Apr-11 09:30N 33°07' W 117°53'612.1
2018-Apr-11 09:00N 33°11' W 117°58'612.1
2018-Apr-11 08:30N 33°16' W 118°03'712.9
2018-Apr-11 08:00N 33°21' W 118°07'816.1
2018-Apr-11 07:30N 33°29' W 118°10'814.5
2018-Apr-11 06:59N 33°36' W 118°13'611.8
2018-Apr-11 06:30N 33°41' W 118°11'4 7.5
2018-Apr-11 06:00N 33°45' W 118°11'0 0.1
2018-Apr-11 05:30N 33°45' W 118°11'0 0.0
2018-Apr-11 05:00N 33°45' W 118°11'0 0.0
2018-Apr-11 04:30N 33°45' W 118°11'0 0.0
2018-Apr-11 04:00N 33°45' W 118°11'0 0.0
2018-Apr-11 03:30N 33°45' W 118°11'0 0.0
2018-Apr-11 02:59N 33°45' W 118°11'0 0.0
2018-Apr-11 02:29N 33°45' W 118°11'0 0.0
2018-Apr-11 01:59N 33°45' W 118°11'0 0.0
2018-Apr-11 01:29N 33°45' W 118°11'0 0.0
2018-Apr-11 00:59N 33°45' W 118°11'0 0.0
2018-Apr-11 00:28N 33°45' W 118°11'0 0.0
2018-Apr-10 23:58N 33°45' W 118°11'0 0.0
2018-Apr-10 23:28N 33°45' W 118°11'0 0.0
2018-Apr-10 22:58N 33°45' W 118°11'0 0.0
2018-Apr-10 22:31N 33°45' W 118°11'0 0.0
2018-Apr-10 22:00N 33°45' W 118°11'0 0.0
2018-Apr-10 21:30N 33°45' W 118°11'0 0.0
2018-Apr-10 21:00N 33°45' W 118°11'0 0.0
2018-Apr-10 20:30N 33°45' W 118°11'0 0.0
2018-Apr-10 19:59N 33°45' W 118°11'0 0.0
2018-Apr-10 19:29N 33°45' W 118°11'0 0.0
2018-Apr-10 18:59N 33°45' W 118°11'0 0.0
2018-Apr-10 18:29N 33°45' W 118°11'0 0.0
2018-Apr-10 17:59N 33°45' W 118°11'0 0.0
2018-Apr-10 17:28N 33°45' W 118°11'0 0.0
2018-Apr-10 16:58N 33°45' W 118°11'0 0.0
2018-Apr-10 16:28N 33°45' W 118°11'0 0.0
2018-Apr-10 15:58N 33°45' W 118°11'0 0.0
2018-Apr-10 15:27N 33°45' W 118°11'0 0.0
2018-Apr-10 15:00N 33°45' W 118°11'0 0.0
2018-Apr-10 14:30N 33°45' W 118°11'0 0.2
2018-Apr-10 14:00N 33°45' W 118°11'1 2.8
2018-Apr-10 13:31N 33°44' W 118°11'510.1
2018-Apr-10 13:01N 33°39' W 118°11'5 9.9
2018-Apr-10 12:28N 33°36' W 118°17'510.1
2018-Apr-10 12:00N 33°37' W 118°23'510.5
2018-Apr-10 11:30N 33°39' W 118°28'510.4
2018-Apr-10 11:00N 33°41' W 118°34'510.4
2018-Apr-10 10:30N 33°41' W 118°40'5 9.5
2018-Apr-10 10:00N 33°39' W 118°45'4 8.7
2018-Apr-10 09:30N 33°39' W 118°51'5 9.5
2018-Apr-10 09:00N 33°42' W 118°55'5 9.2
2018-Apr-10 08:29N 33°43' W 119°01'5 9.6
2018-Apr-10 08:00N 33°43' W 119°06'5 9.2
2018-Apr-10 07:25N 33°44' W 119°13'4 9.5
2018-Apr-10 07:00N 33°48' W 119°12'510.2
2018-Apr-10 06:30N 33°53' W 119°10'5 9.8
2018-Apr-10 05:59N 33°58' W 119°09'5 9.9
2018-Apr-10 05:28N 34°01' W 119°13'5 9.8
2018-Apr-10 05:00N 34°03' W 119°18'61098.0
2018-Apr-10 05:00N 34°00' W 119°12'1122.3 330 / 161013.810.8 18.0-0.613.0
2018-Apr-10 04:30N 34°04' W 119°24'510.0
2018-Apr-10 03:59N 34°06' W 119°30'5 9.8
2018-Apr-10 03:30N 34°07' W 119°36'5 9.9
2018-Apr-10 02:59N 34°08' W 119°42'4 7.7
2018-Apr-10 02:29N 34°12' W 119°44'5 9.8
2018-Apr-10 02:00N 34°16' W 119°43'510.0
2018-Apr-10 01:30N 34°21' W 119°42'2 1.1
2018-Apr-09 23:10N 34°24' W 119°41'0 0.0
2018-Apr-09 22:46N 34°24' W 119°41'0 0.0
2018-Apr-09 22:28N 34°24' W 119°41'0 0.0
2018-Apr-09 21:49N 34°24' W 119°41'0 0.0
2018-Apr-09 21:22N 34°24' W 119°41'0 0.0
2018-Apr-09 16:29N 34°24' W 119°41'0 0.0
2018-Apr-09 14:05N 34°24' W 119°41'0 0.4
2018-Apr-09 14:00N 34°24' W 119°41'2 3.9
2018-Apr-09 13:27N 34°22' W 119°40'510.4
2018-Apr-09 12:59N 34°18' W 119°37'510.7
2018-Apr-09 12:30N 34°13' W 119°33'510.7
2018-Apr-09 11:59N 34°09' W 119°29'510.4
2018-Apr-09 11:30N 34°06' W 119°24'611.2
2018-Apr-09 11:00N 34°05' W 119°18'611.5
2018-Apr-09 10:30N 34°02' W 119°11'5 9.9
2018-Apr-09 10:00N 33°57' W 119°13'611.9
2018-Apr-09 09:30N 33°53' W 119°18'612.3
2018-Apr-09 09:00N 33°52' W 119°25'611.9
2018-Apr-09 08:30N 33°51' W 119°32'612.4
2018-Apr-09 07:59N 33°49' W 119°40'612.6
2018-Apr-09 07:30N 33°48' W 119°47'612.3
2018-Apr-09 07:00N 33°47' W 119°54'611.9
2018-Apr-09 06:30N 33°46' W 120°01'611.6
2018-Apr-09 06:00N 33°45' W 120°08'612.2
2018-Apr-09 05:30N 33°48' W 120°15'712.0
2018-Apr-09 04:57N 33°51' W 120°22'612.1
2018-Apr-09 04:27N 33°53' W 120°29'712.7
2018-Apr-09 03:56N 33°56' W 120°36'816.3
2018-Apr-09 03:27N 33°60' W 120°44'716.3
2018-Apr-09 03:00N 34°04' W 120°51'816.4
2018-Apr-09 02:31N 34°09' W 120°59'816.2
2018-Apr-09 02:00N 34°14' W 121°07'815.5
2018-Apr-09 01:30N 34°18' W 121°15'815.2
2018-Apr-09 01:00N 34°22' W 121°23'815.2
2018-Apr-09 00:31N 34°26' W 121°30'815.4
2018-Apr-09 00:00N 34°31' W 121°38'714.3
2018-Apr-08 23:30N 34°35' W 121°45'611.6
2018-Apr-08 23:00N 34°38' W 121°51'611.6
2018-Apr-08 22:30N 34°41' W 121°57'611.4
2018-Apr-08 22:00N 34°45' W 122°03'8210.2
2018-Apr-08 14:00N 35°48' W 123°06'8110.3 010 / 171022.210.8 13.011.113.0
2018-Apr-08 06:05N 37°09' W 123°11'  
Track history (hours):
 
Tides and Currents Weather Stations Pressure Air Temp Water Temp Dewpoint Dewpoint Depression Visibility Wind Speed Wind Dir Waves Ship Positions

Grand Princess

Operator: Princess Cruises

Last reported at 2018-Apr-18 06:00 UTC. Time now 2018-Apr-20 06:31 UTC.
Position N 25°36' W 148°18'.

Length 289.5 m; beam 36 m; draft 8.5 m.

Type: Passenger vessel. MMSI: 310327000.

Wind from 090 at 19 knots

Barometer 1023.1 mb
Air temperature 20.0 ° C
Visibility: greater than 5.4 NM
Dewpoint 14.9 ° C
Water temperature 23.0 ° C

Date/timePositionNaut miles runAvg speedWind from/ knotsBaromVisibWave heightAir tempDewpointWater temp
2018-Apr-18 06:00N 25°36' W 148°18'   090 / 191023.1 5.4 20.014.923.0
2018-Apr-15 18:00N 35°24' W 127°42'16917.6 300 / 381017.110.8 13.5 8.814.0
2018-Apr-15 08:21N 36°51' W 124°42'815.3
2018-Apr-15 07:51N 36°55' W 124°34'1115.3
2018-Apr-15 07:09N 36°60' W 124°22'215.4
2018-Apr-15 07:00N 37°01' W 124°19'815.3
2018-Apr-15 06:30N 37°05' W 124°11'1815.3
2018-Apr-15 05:22N 37°13' W 123°52'615.7
2018-Apr-15 05:00N 37°16' W 123°45'5291.1
2018-Apr-15 05:00N 37°12' W 123°42'917.6 320 / 261020.0 5.4 13.011.111.0
2018-Apr-15 04:30N 37°19' W 123°37'815.3
2018-Apr-15 04:00N 37°23' W 123°28'815.4
2018-Apr-15 03:30N 37°27' W 123°20'815.6
2018-Apr-15 03:00N 37°31' W 123°11'815.9
2018-Apr-15 02:30N 37°35' W 123°03'816.1
2018-Apr-15 02:00N 37°39' W 122°54'815.8
2018-Apr-15 01:30N 37°43' W 122°45'713.2
2018-Apr-15 01:00N 37°46' W 122°38'815.9
2018-Apr-15 00:30N 37°49' W 122°29'4 7.3
2018-Apr-14 23:59N 37°48' W 122°24'0 0.0
2018-Apr-14 23:29N 37°48' W 122°24'0 0.0
2018-Apr-14 22:59N 37°48' W 122°24'0 0.0
2018-Apr-14 22:28N 37°48' W 122°24'0 0.0
2018-Apr-14 21:58N 37°48' W 122°24'0 0.0
2018-Apr-14 21:28N 37°48' W 122°24'0 0.0
2018-Apr-14 20:58N 37°48' W 122°24'0 0.0
2018-Apr-14 20:30N 37°48' W 122°24'0 0.0
2018-Apr-14 20:00N 37°48' W 122°24'0 0.0
2018-Apr-14 19:30N 37°48' W 122°24'0 0.0
2018-Apr-14 19:00N 37°48' W 122°24'0 0.0
2018-Apr-14 18:30N 37°48' W 122°24'0 0.0
2018-Apr-14 17:59N 37°48' W 122°24'0 0.0
2018-Apr-14 17:29N 37°48' W 122°24'0 0.0
2018-Apr-14 16:59N 37°48' W 122°24'0 0.0
2018-Apr-14 16:29N 37°48' W 122°24'0 0.0
2018-Apr-14 15:59N 37°48' W 122°24'0 0.0
2018-Apr-14 15:28N 37°48' W 122°24'0 0.0
2018-Apr-14 14:58N 37°48' W 122°24'0 0.0
2018-Apr-14 14:25N 37°48' W 122°24'0 0.0
2018-Apr-14 13:58N 37°48' W 122°24'0 0.3
2018-Apr-14 13:30N 37°48' W 122°24'3 6.5
2018-Apr-14 13:00N 37°49' W 122°28'510.9
2018-Apr-14 12:30N 37°47' W 122°34'510.7
2018-Apr-14 12:00N 37°44' W 122°40'611.4
2018-Apr-14 11:30N 37°39' W 122°40'612.4
2018-Apr-14 11:00N 37°33' W 122°40'612.4
2018-Apr-14 10:30N 37°26' W 122°40'612.3
2018-Apr-14 10:00N 37°20' W 122°40'612.9
2018-Apr-14 09:31N 37°14' W 122°39'714.6
2018-Apr-14 09:00N 37°07' W 122°37'814.7
2018-Apr-14 08:28N 36°59' W 122°34'814.5
2018-Apr-14 07:57N 36°52' W 122°30'714.4
2018-Apr-14 07:27N 36°46' W 122°27'4312.4
2018-Apr-14 04:00N 36°06' W 122°06'678.1 330 / 351018.0 5.4 13.011.112.0
2018-Apr-14 03:55N 36°00' W 122°07'2812.5
2018-Apr-14 01:41N 35°35' W 121°53'213.0
2018-Apr-14 01:30N 35°33' W 121°51'612.9
2018-Apr-14 01:01N 35°27' W 121°48'712.9
2018-Apr-14 00:30N 35°21' W 121°44'612.9
2018-Apr-14 00:00N 35°16' W 121°40'5359.3
2018-Apr-14 00:00N 35°12' W 121°36'2 4.1 340 / 271026.010.8 13.0 6.813.0
2018-Apr-13 23:30N 35°10' W 121°37'612.8
2018-Apr-13 23:00N 35°04' W 121°33'612.8
2018-Apr-13 22:31N 34°59' W 121°30'612.8
2018-Apr-13 22:00N 34°53' W 121°26'612.7
2018-Apr-13 21:30N 34°47' W 121°22'612.7
2018-Apr-13 21:01N 34°42' W 121°19'713.4
2018-Apr-13 20:30N 34°36' W 121°15'713.2
2018-Apr-13 19:58N 34°30' W 121°11'813.3
2018-Apr-13 19:20N 34°22' W 121°06'413.0
2018-Apr-13 18:59N 34°18' W 121°04'612.6
2018-Apr-13 18:30N 34°13' W 120°59'612.5
2018-Apr-13 18:00N 34°09' W 120°54'612.4
2018-Apr-13 17:30N 34°04' W 120°49'812.1
2018-Apr-13 16:52N 33°59' W 120°42'613.4
2018-Apr-13 16:26N 33°56' W 120°36'613.2
2018-Apr-13 16:00N 33°54' W 120°30'713.5
2018-Apr-13 15:30N 33°51' W 120°23'713.9
2018-Apr-13 15:00N 33°47' W 120°15'714.0
2018-Apr-13 14:30N 33°45' W 120°07'815.6
2018-Apr-13 14:00N 33°46' W 119°58'815.9
2018-Apr-13 13:30N 33°46' W 119°48'815.6
2018-Apr-13 13:01N 33°47' W 119°39'816.2
2018-Apr-13 12:30N 33°48' W 119°29'816.3
2018-Apr-13 11:59N 33°45' W 119°20'816.5
2018-Apr-13 11:29N 33°42' W 119°11'816.4
2018-Apr-13 11:01N 33°39' W 119°02'815.6
2018-Apr-13 10:31N 33°35' W 118°54'815.7
2018-Apr-13 09:59N 33°28' W 118°47'715.7
2018-Apr-13 09:30N 33°23' W 118°42'715.0
2018-Apr-13 09:00N 33°17' W 118°36'815.1
2018-Apr-13 08:31N 33°12' W 118°30'714.8
2018-Apr-13 08:01N 33°06' W 118°24'715.0
2018-Apr-13 07:31N 33°01' W 118°18'815.1
2018-Apr-13 07:00N 32°55' W 118°12'815.3
2018-Apr-13 06:30N 32°49' W 118°06'714.8
2018-Apr-13 06:00N 32°44' W 117°60'713.6
2018-Apr-13 05:31N 32°39' W 117°54'714.7
2018-Apr-13 05:00N 32°37' W 117°45'3231.4
2018-Apr-13 05:00N 32°36' W 117°42'611.7 300 / 251017.310.8 18.012.720.0
2018-Apr-13 04:30N 32°32' W 117°38'918.0
2018-Apr-13 04:00N 32°23' W 117°34'1018.0
2018-Apr-13 03:27N 32°15' W 117°28'24 1.2
2018-Apr-12 07:01N 32°36' W 117°15'210.3
2018-Apr-12 06:50N 32°38' W 117°14'6 0.5
2018-Apr-11 18:17N 32°43' W 117°10'0 0.0
2018-Apr-11 17:47N 32°43' W 117°10'0 0.0
2018-Apr-11 17:23N 32°43' W 117°10'0 0.0
2018-Apr-11 16:40N 32°43' W 117°10'0 0.0
2018-Apr-11 16:28N 32°43' W 117°10'0 0.0
2018-Apr-11 15:07N 32°43' W 117°10'0 0.0
2018-Apr-11 14:58N 32°43' W 117°10'0 0.1
2018-Apr-11 14:30N 32°43' W 117°10'4 5.5
2018-Apr-11 13:42N 32°39' W 117°14'2 9.7
2018-Apr-11 13:30N 32°38' W 117°14'5 9.4
2018-Apr-11 13:00N 32°39' W 117°20'611.5
2018-Apr-11 12:31N 32°43' W 117°24'611.2
2018-Apr-11 12:00N 32°46' W 117°29'611.2
2018-Apr-11 11:31N 32°50' W 117°34'611.3
2018-Apr-11 11:00N 32°54' W 117°39'611.4
2018-Apr-11 10:30N 32°59' W 117°43'611.5
2018-Apr-11 10:01N 33°03' W 117°48'611.7
2018-Apr-11 09:30N 33°07' W 117°53'612.1
2018-Apr-11 09:00N 33°11' W 117°58'612.1
2018-Apr-11 08:30N 33°16' W 118°03'712.9
2018-Apr-11 08:00N 33°21' W 118°07'816.1
2018-Apr-11 07:30N 33°29' W 118°10'814.5
2018-Apr-11 06:59N 33°36' W 118°13'611.8
2018-Apr-11 06:30N 33°41' W 118°11'4 7.5
2018-Apr-11 06:00N 33°45' W 118°11'0 0.1
2018-Apr-11 05:30N 33°45' W 118°11'0 0.0
2018-Apr-11 05:00N 33°45' W 118°11'0 0.0
2018-Apr-11 04:30N 33°45' W 118°11'0 0.0
2018-Apr-11 04:00N 33°45' W 118°11'0 0.0
2018-Apr-11 03:30N 33°45' W 118°11'0 0.0
2018-Apr-11 02:59N 33°45' W 118°11'0 0.0
2018-Apr-11 02:29N 33°45' W 118°11'0 0.0
2018-Apr-11 01:59N 33°45' W 118°11'0 0.0
2018-Apr-11 01:29N 33°45' W 118°11'0 0.0
2018-Apr-11 00:59N 33°45' W 118°11'0 0.0
2018-Apr-11 00:28N 33°45' W 118°11'0 0.0
2018-Apr-10 23:58N 33°45' W 118°11'0 0.0
2018-Apr-10 23:28N 33°45' W 118°11'0 0.0
2018-Apr-10 22:58N 33°45' W 118°11'0 0.0
2018-Apr-10 22:31N 33°45' W 118°11'0 0.0
2018-Apr-10 22:00N 33°45' W 118°11'0 0.0
2018-Apr-10 21:30N 33°45' W 118°11'0 0.0
2018-Apr-10 21:00N 33°45' W 118°11'0 0.0
2018-Apr-10 20:30N 33°45' W 118°11'0 0.0
2018-Apr-10 19:59N 33°45' W 118°11'0 0.0
2018-Apr-10 19:29N 33°45' W 118°11'0 0.0
2018-Apr-10 18:59N 33°45' W 118°11'0 0.0
2018-Apr-10 18:29N 33°45' W 118°11'0 0.0
2018-Apr-10 17:59N 33°45' W 118°11'0 0.0
2018-Apr-10 17:28N 33°45' W 118°11'0 0.0
2018-Apr-10 16:58N 33°45' W 118°11'0 0.0
2018-Apr-10 16:28N 33°45' W 118°11'0 0.0
2018-Apr-10 15:58N 33°45' W 118°11'0 0.0
2018-Apr-10 15:27N 33°45' W 118°11'0 0.0
2018-Apr-10 15:00N 33°45' W 118°11'0 0.0
2018-Apr-10 14:30N 33°45' W 118°11'0 0.2
2018-Apr-10 14:00N 33°45' W 118°11'1 2.8
2018-Apr-10 13:31N 33°44' W 118°11'510.1
2018-Apr-10 13:01N 33°39' W 118°11'5 9.9
2018-Apr-10 12:28N 33°36' W 118°17'510.1
2018-Apr-10 12:00N 33°37' W 118°23'510.5
2018-Apr-10 11:30N 33°39' W 118°28'510.4
2018-Apr-10 11:00N 33°41' W 118°34'510.4
2018-Apr-10 10:30N 33°41' W 118°40'5 9.5
2018-Apr-10 10:00N 33°39' W 118°45'4 8.7
2018-Apr-10 09:30N 33°39' W 118°51'5 9.5
2018-Apr-10 09:00N 33°42' W 118°55'5 9.2
2018-Apr-10 08:29N 33°43' W 119°01'5 9.6
2018-Apr-10 08:00N 33°43' W 119°06'5 9.2
2018-Apr-10 07:25N 33°44' W 119°13'4 9.5
2018-Apr-10 07:00N 33°48' W 119°12'510.2
2018-Apr-10 06:30N 33°53' W 119°10'5 9.8
2018-Apr-10 05:59N 33°58' W 119°09'5 9.9
2018-Apr-10 05:28N 34°01' W 119°13'5 9.8
2018-Apr-10 05:00N 34°03' W 119°18'61098.0
2018-Apr-10 05:00N 34°00' W 119°12'1122.3 330 / 161013.810.8 18.0-0.613.0
2018-Apr-10 04:30N 34°04' W 119°24'510.0
2018-Apr-10 03:59N 34°06' W 119°30'5 9.8
2018-Apr-10 03:30N 34°07' W 119°36'5 9.9
2018-Apr-10 02:59N 34°08' W 119°42'4 7.7
2018-Apr-10 02:29N 34°12' W 119°44'5 9.8
2018-Apr-10 02:00N 34°16' W 119°43'510.0
2018-Apr-10 01:30N 34°21' W 119°42'2 1.1
2018-Apr-09 23:10N 34°24' W 119°41'0 0.0
2018-Apr-09 22:46N 34°24' W 119°41'0 0.0
2018-Apr-09 22:28N 34°24' W 119°41'0 0.0
2018-Apr-09 21:49N 34°24' W 119°41'0 0.0
2018-Apr-09 21:22N 34°24' W 119°41'0 0.0
2018-Apr-09 16:29N 34°24' W 119°41'0 0.0
2018-Apr-09 14:05N 34°24' W 119°41'0 0.4
2018-Apr-09 14:00N 34°24' W 119°41'2 3.9
2018-Apr-09 13:27N 34°22' W 119°40'510.4
2018-Apr-09 12:59N 34°18' W 119°37'510.7
2018-Apr-09 12:30N 34°13' W 119°33'510.7
2018-Apr-09 11:59N 34°09' W 119°29'510.4
2018-Apr-09 11:30N 34°06' W 119°24'611.2
2018-Apr-09 11:00N 34°05' W 119°18'611.5
2018-Apr-09 10:30N 34°02' W 119°11'5 9.9
2018-Apr-09 10:00N 33°57' W 119°13'611.9
2018-Apr-09 09:30N 33°53' W 119°18'612.3
2018-Apr-09 09:00N 33°52' W 119°25'611.9
2018-Apr-09 08:30N 33°51' W 119°32'612.4
2018-Apr-09 07:59N 33°49' W 119°40'612.6
2018-Apr-09 07:30N 33°48' W 119°47'612.3
2018-Apr-09 07:00N 33°47' W 119°54'611.9
2018-Apr-09 06:30N 33°46' W 120°01'611.6
2018-Apr-09 06:00N 33°45' W 120°08'612.2
2018-Apr-09 05:30N 33°48' W 120°15'712.0
2018-Apr-09 04:57N 33°51' W 120°22'612.1
2018-Apr-09 04:27N 33°53' W 120°29'712.7
2018-Apr-09 03:56N 33°56' W 120°36'816.3
2018-Apr-09 03:27N 33°60' W 120°44'716.3
2018-Apr-09 03:00N 34°04' W 120°51'816.4
2018-Apr-09 02:31N 34°09' W 120°59'816.2
2018-Apr-09 02:00N 34°14' W 121°07'815.5
2018-Apr-09 01:30N 34°18' W 121°15'815.2
2018-Apr-09 01:00N 34°22' W 121°23'815.2
2018-Apr-09 00:31N 34°26' W 121°30'815.4
2018-Apr-09 00:00N 34°31' W 121°38'714.3
2018-Apr-08 23:30N 34°35' W 121°45'611.6
2018-Apr-08 23:00N 34°38' W 121°51'611.6
2018-Apr-08 22:30N 34°41' W 121°57'611.4
2018-Apr-08 22:00N 34°45' W 122°03'8210.2
2018-Apr-08 14:00N 35°48' W 123°06'8110.3 010 / 171022.210.8 13.011.113.0
2018-Apr-08 06:05N 37°09' W 123°11'  

Dump ship's entire track history